Time;durP1;ratioP1;P1;durP2;ratioP2;P2;SDS_P1;SDS_P2;PMS_P1;PMS_P2;Temp;Humidity;BMP_temperature;BMP_pressure;BME280_temperature;BME280_humidity;BME280_pressure;Samples;Min_cycle;Max_cycle;Signal;HPM_P1;HPM_P2
2023/12/26 00:01:32;;;;;;;15.47;0.70;;;12.40;99.90;;;;;;5080181;28;20176;-82
2023/12/26 00:03:58;;;;;;;15.40;0.70;;;12.40;99.90;;;;;;5080521;28;20160;-83
2023/12/26 00:06:24;;;;;;;15.43;0.70;;;12.40;99.90;;;;;;5064052;28;20160;-81
2023/12/26 00:08:49;;;;;;;15.57;0.70;;;12.40;99.90;;;;;;5064945;28;20242;-82
2023/12/26 00:11:15;;;;;;;15.30;0.60;;;12.40;99.90;;;;;;5080161;28;20942;-82
2023/12/26 00:13:43;;;;;;;15.40;0.60;;;12.40;99.90;;;;;;5080795;28;20160;-82
2023/12/26 00:16:09;;;;;;;16.23;0.77;;;12.40;99.90;;;;;;5062621;28;20581;-82
2023/12/26 00:18:35;;;;;;;15.63;0.70;;;12.30;99.90;;;;;;5062814;28;20196;-83
2023/12/26 00:21:01;;;;;;;15.50;0.80;;;12.40;99.90;;;;;;5062324;28;20167;-83
2023/12/26 00:23:27;;;;;;;15.35;0.68;;;12.30;99.90;;;;;;5080520;28;20517;-83
2023/12/26 00:25:53;;;;;;;16.20;0.80;;;12.30;99.90;;;;;;5062399;28;20187;-83
2023/12/26 00:28:19;;;;;;;15.33;0.60;;;12.20;99.90;;;;;;5080415;28;20418;-83
2023/12/26 00:30:45;;;;;;;15.45;0.65;;;12.20;99.90;;;;;;5079129;28;20165;-83
2023/12/26 00:33:11;;;;;;;15.45;0.70;;;12.20;99.90;;;;;;5062122;28;20172;-83
2023/12/26 00:35:37;;;;;;;15.40;0.70;;;12.20;99.90;;;;;;5080098;28;20231;-83
2023/12/26 00:38:03;;;;;;;15.37;0.70;;;12.20;99.90;;;;;;5062052;28;20193;-83
2023/12/26 00:40:29;;;;;;;15.77;0.93;;;12.20;99.90;;;;;;5080255;28;20179;-83
2023/12/26 00:42:55;;;;;;;15.77;0.83;;;12.20;99.90;;;;;;5079993;28;20149;-83
2023/12/26 00:45:22;;;;;;;15.60;0.70;;;12.10;99.90;;;;;;5079769;28;20722;-83
2023/12/26 00:47:48;;;;;;;15.98;0.90;;;12.10;99.90;;;;;;5080211;28;20164;-83
2023/12/26 00:50:16;;;;;;;15.35;0.80;;;12.10;99.90;;;;;;5062152;28;20180;-83
2023/12/26 00:52:42;;;;;;;27.63;2.20;;;12.10;99.90;;;;;;5062248;28;20165;-83
2023/12/26 00:55:08;;;;;;;15.43;0.70;;;12.00;99.90;;;;;;5079258;28;20268;-83
2023/12/26 00:57:34;;;;;;;15.07;0.70;;;12.00;99.90;;;;;;5079817;28;20224;-82
2023/12/26 01:00:00;;;;;;;15.45;1.00;;;12.00;99.90;;;;;;5079538;28;20399;-82
2023/12/26 01:02:29;;;;;;;15.23;0.70;;;12.00;99.90;;;;;;5079867;28;20165;-82
2023/12/26 01:04:56;;;;;;;16.27;0.75;;;12.00;99.90;;;;;;5061807;28;20192;-83
2023/12/26 01:07:22;;;;;;;15.50;0.80;;;11.90;99.90;;;;;;5079970;28;20161;-83
2023/12/26 01:09:48;;;;;;;15.27;0.70;;;11.90;99.90;;;;;;5080145;28;20252;-83
2023/12/26 01:12:14;;;;;;;15.37;0.80;;;11.90;99.90;;;;;;5061008;28;20172;-82
2023/12/26 01:14:40;;;;;;;15.82;0.90;;;11.90;99.90;;;;;;5061476;28;20490;-83
2023/12/26 01:17:06;;;;;;;15.27;0.70;;;11.90;99.90;;;;;;5061258;28;20196;-82
2023/12/26 01:19:32;;;;;;;15.37;0.70;;;11.90;99.90;;;;;;5061032;28;20430;-82
2023/12/26 01:21:57;;;;;;;15.60;0.80;;;11.90;99.90;;;;;;5079108;28;20446;-82
2023/12/26 01:24:23;;;;;;;15.17;0.63;;;11.80;99.90;;;;;;5061196;28;20180;-82
2023/12/26 01:26:49;;;;;;;15.50;0.83;;;11.80;99.90;;;;;;5078892;28;20168;-82
2023/12/26 01:29:14;;;;;;;15.87;0.80;;;11.80;99.90;;;;;;5061384;28;20703;-82
2023/12/26 01:31:40;;;;;;;15.37;0.80;;;11.80;99.90;;;;;;5061214;28;20167;-82
2023/12/26 01:34:06;;;;;;;16.03;0.90;;;11.80;99.90;;;;;;5060730;28;20172;-82
2023/12/26 01:36:35;;;;;;;15.20;0.68;;;11.80;99.90;;;;;;5077889;28;20160;-83
2023/12/26 01:39:01;;;;;;;20.55;0.93;;;11.80;99.90;;;;;;5080802;28;20188;-82
2023/12/26 01:41:27;;;;;;;15.57;0.80;;;11.80;99.90;;;;;;5064451;28;20172;-82
2023/12/26 01:43:52;;;;;;;15.37;0.70;;;11.80;99.90;;;;;;5079105;28;20294;-82
2023/12/26 01:46:21;;;;;;;15.63;0.80;;;11.80;99.90;;;;;;5060728;28;20528;-82
2023/12/26 01:48:52;;;;;;;15.93;0.68;;;11.80;99.90;;;;;;5060858;28;20176;-82
2023/12/26 01:51:20;;;;;;;15.40;0.70;;;11.80;99.90;;;;;;5079070;28;20165;-82
2023/12/26 01:53:46;;;;;;;15.55;0.80;;;11.80;99.90;;;;;;5078848;28;20156;-82
2023/12/26 01:56:15;;;;;;;15.55;0.90;;;11.80;99.90;;;;;;5060783;28;20220;-82
2023/12/26 01:58:43;;;;;;;15.15;0.70;;;11.80;99.90;;;;;;5060420;28;20283;-82
2023/12/26 02:01:10;;;;;;;16.00;1.00;;;11.80;99.90;;;;;;5078427;28;20248;-82
2023/12/26 02:03:36;;;;;;;15.60;0.70;;;11.80;99.90;;;;;;5060231;28;20271;-83
2023/12/26 02:06:03;;;;;;;15.20;0.70;;;11.80;99.90;;;;;;5078278;28;20181;-82
2023/12/26 02:08:29;;;;;;;17.85;0.90;;;11.80;99.90;;;;;;5060274;28;20758;-82
2023/12/26 02:10:55;;;;;;;15.32;0.70;;;11.70;99.90;;;;;;5077479;28;20160;-82
2023/12/26 02:13:21;;;;;;;16.07;1.00;;;11.70;99.90;;;;;;5078232;28;20582;-82
2023/12/26 02:15:50;;;;;;;16.00;0.80;;;11.70;99.90;;;;;;5060293;28;20204;-83
2023/12/26 02:18:16;;;;;;;16.40;1.10;;;11.70;99.90;;;;;;5146693;23;20223;-83
2023/12/26 02:20:41;;;;;;;16.13;1.15;;;11.70;99.90;;;;;;5080161;28;20194;-82
2023/12/26 02:23:07;;;;;;;15.50;0.90;;;11.70;99.90;;;;;;5080194;28;20163;-83
2023/12/26 02:25:33;;;;;;;15.87;0.90;;;11.70;99.90;;;;;;5084479;28;20229;-82
2023/12/26 02:28:03;;;;;;;15.40;0.70;;;11.70;99.90;;;;;;5076940;28;20538;-81
2023/12/26 02:30:30;;;;;;;15.80;0.82;;;11.70;99.90;;;;;;5077276;28;20964;-82
2023/12/26 02:32:58;;;;;;;15.60;0.60;;;11.70;99.90;;;;;;5077141;28;20180;-82
2023/12/26 02:35:24;;;;;;;15.90;1.00;;;11.60;99.90;;;;;;5058658;28;20200;-81
2023/12/26 02:37:50;;;;;;;16.15;0.80;;;11.60;99.90;;;;;;5059123;28;20637;-82
2023/12/26 02:40:16;;;;;;;15.65;0.80;;;11.60;99.90;;;;;;5058707;28;20168;-81
2023/12/26 02:42:42;;;;;;;15.93;0.80;;;11.60;99.90;;;;;;5058944;28;20279;-82
2023/12/26 02:45:09;;;;;;;16.00;1.00;;;11.50;99.90;;;;;;5077106;28;20681;-82
2023/12/26 02:47:34;;;;;;;15.93;0.70;;;11.50;99.90;;;;;;5077464;28;20259;-81
2023/12/26 02:50:00;;;;;;;15.87;0.70;;;11.50;99.90;;;;;;5077033;28;20628;-82
2023/12/26 02:52:28;;;;;;;16.33;0.70;;;11.50;99.90;;;;;;5077132;28;20184;-82
2023/12/26 02:54:54;;;;;;;16.05;0.70;;;11.50;99.90;;;;;;5058542;28;20540;-82
2023/12/26 02:57:20;;;;;;;15.97;0.77;;;11.50;99.90;;;;;;5076490;28;20199;-82
2023/12/26 02:59:45;;;;;;;15.80;0.70;;;11.40;99.90;;;;;;5076124;28;20192;-82
2023/12/26 03:02:11;;;;;;;16.43;0.90;;;11.50;99.90;;;;;;5076010;28;20721;-82
2023/12/26 03:04:37;;;;;;;16.07;0.73;;;11.40;99.90;;;;;;5076532;28;20263;-81
2023/12/26 03:07:03;;;;;;;16.07;1.13;;;11.40;99.90;;;;;;5058981;28;20171;-82
2023/12/26 03:09:29;;;;;;;15.93;0.70;;;11.40;99.90;;;;;;5059135;28;20168;-83
2023/12/26 03:11:54;;;;;;;23.13;1.10;;;11.40;99.90;;;;;;5060991;28;20583;-82
2023/12/26 03:14:20;;;;;;;16.67;0.80;;;11.40;99.90;;;;;;5063316;28;20184;-82
2023/12/26 03:16:46;;;;;;;16.67;0.90;;;11.30;99.90;;;;;;5077482;28;20526;-82
2023/12/26 03:19:12;;;;;;;16.55;0.80;;;11.30;99.90;;;;;;5059156;28;20443;-83
2023/12/26 03:21:41;;;;;;;16.30;0.70;;;11.20;99.90;;;;;;5077793;28;20168;-83
2023/12/26 03:24:06;;;;;;;16.23;0.70;;;11.20;99.90;;;;;;5059981;28;20175;-83
2023/12/26 03:26:35;;;;;;;16.40;0.70;;;11.20;99.90;;;;;;5059722;28;20164;-83
2023/12/26 03:29:01;;;;;;;16.15;0.70;;;11.10;99.90;;;;;;5059762;28;20826;-83
2023/12/26 03:31:27;;;;;;;17.30;0.87;;;11.10;99.90;;;;;;5059824;28;20168;-83
2023/12/26 03:33:55;;;;;;;17.70;0.80;;;11.00;99.90;;;;;;5077128;28;20475;-83
2023/12/26 03:36:21;;;;;;;16.92;0.80;;;11.00;99.90;;;;;;5077816;28;20192;-83
2023/12/26 03:38:47;;;;;;;16.80;0.70;;;11.00;99.90;;;;;;5059568;28;20238;-83
2023/12/26 03:41:13;;;;;;;17.50;0.90;;;11.00;99.90;;;;;;5077655;28;20164;-83
2023/12/26 03:43:39;;;;;;;18.00;0.77;;;11.00;99.90;;;;;;5059554;28;20403;-83
2023/12/26 03:46:05;;;;;;;18.43;0.80;;;10.90;99.90;;;;;;5059280;28;20204;-82
2023/12/26 03:48:30;;;;;;;17.90;1.13;;;10.90;99.90;;;;;;5059090;28;20176;-82
2023/12/26 03:50:58;;;;;;;16.90;0.80;;;10.90;99.90;;;;;;5077626;28;20176;-82
2023/12/26 03:53:24;;;;;;;16.88;0.70;;;10.90;99.90;;;;;;5059365;28;20173;-83
2023/12/26 03:55:50;;;;;;;19.00;0.90;;;10.90;99.90;;;;;;5077226;28;20211;-83
2023/12/26 03:58:15;;;;;;;17.45;0.80;;;10.90;99.90;;;;;;5059522;28;20284;-83
2023/12/26 04:00:41;;;;;;;17.00;0.70;;;10.90;99.90;;;;;;5077426;28;20192;-83
2023/12/26 04:03:07;;;;;;;16.83;0.70;;;10.90;99.90;;;;;;5077244;28;20168;-83
2023/12/26 04:05:33;;;;;;;17.67;0.70;;;10.90;99.90;;;;;;5077512;28;20189;-83
2023/12/26 04:07:58;;;;;;;16.97;0.70;;;10.90;99.90;;;;;;5080391;28;20232;-83
2023/12/26 04:10:24;;;;;;;18.07;0.70;;;10.90;99.90;;;;;;5080816;28;20167;-82
2023/12/26 04:12:50;;;;;;;16.50;0.70;;;10.90;99.90;;;;;;5080956;28;20160;-82
2023/12/26 04:15:16;;;;;;;16.60;0.80;;;11.00;99.90;;;;;;5080532;28;20192;-82
2023/12/26 04:17:42;;;;;;;18.00;0.80;;;11.00;99.90;;;;;;5062224;28;20458;-82
2023/12/26 04:20:08;;;;;;;22.40;1.00;;;11.00;99.90;;;;;;5080797;28;20175;-82
2023/12/26 04:22:34;;;;;;;17.05;0.80;;;11.00;99.90;;;;;;5062647;28;20701;-83
2023/12/26 04:24:59;;;;;;;16.57;0.70;;;11.00;99.90;;;;;;5062824;28;20218;-83
2023/12/26 04:27:25;;;;;;;16.67;0.70;;;11.00;99.90;;;;;;5062818;28;20172;-82
2023/12/26 04:29:51;;;;;;;16.70;0.80;;;11.00;99.90;;;;;;5062220;28;20593;-83
2023/12/26 04:32:17;;;;;;;17.90;0.80;;;10.90;99.90;;;;;;5080069;28;20213;-82
2023/12/26 04:34:43;;;;;;;16.97;0.93;;;11.00;99.90;;;;;;5062044;28;20681;-82
2023/12/26 04:37:08;;;;;;;16.23;0.60;;;11.00;99.90;;;;;;5079472;28;20282;-82
2023/12/26 04:39:34;;;;;;;17.50;0.70;;;11.00;99.90;;;;;;5079916;28;20164;-82
2023/12/26 04:42:00;;;;;;;17.23;0.80;;;11.00;99.90;;;;;;5061672;28;20534;-81
2023/12/26 04:44:25;;;;;;;17.17;0.80;;;11.00;99.90;;;;;;5081865;28;20177;-82
2023/12/26 04:46:51;;;;;;;17.10;1.23;;;11.00;99.90;;;;;;5082501;28;20164;-83
2023/12/26 04:49:17;;;;;;;16.47;0.80;;;11.00;99.90;;;;;;5079852;28;20226;-83
2023/12/26 04:51:42;;;;;;;16.50;0.83;;;11.00;99.90;;;;;;5080384;28;20502;-83
2023/12/26 04:54:08;;;;;;;16.27;0.70;;;11.00;99.90;;;;;;5079665;28;20169;-82
2023/12/26 04:56:36;;;;;;;16.10;0.70;;;11.00;99.90;;;;;;5079907;28;20161;-83
2023/12/26 04:59:03;;;;;;;16.80;0.90;;;11.00;99.90;;;;;;5079718;28;20661;-82
2023/12/26 05:01:29;;;;;;;16.35;0.70;;;11.00;99.90;;;;;;5062173;28;20165;-82
2023/12/26 05:03:54;;;;;;;16.80;0.80;;;11.00;99.90;;;;;;5061776;28;20656;-82
2023/12/26 05:06:20;;;;;;;16.57;0.77;;;11.00;99.90;;;;;;5079050;28;20207;-82
2023/12/26 05:08:46;;;;;;;16.73;1.00;;;11.00;99.90;;;;;;5079197;28;20418;-82
2023/12/26 05:11:23;;;;;;;19.87;0.90;;;11.00;99.90;;;;;;5080101;28;20255;-82
2023/12/26 05:13:50;;;;;;;18.70;1.10;;;11.00;99.90;;;;;;5061108;28;20810;-82
2023/12/26 05:16:17;;;;;;;16.70;0.80;;;11.00;99.90;;;;;;5079304;28;20188;-82
2023/12/26 05:18:43;;;;;;;18.15;0.93;;;11.00;99.90;;;;;;5061113;28;20206;-82
2023/12/26 05:21:23;;;;;;;17.33;0.80;;;11.00;99.90;;;;;;5079615;28;20629;-82
2023/12/26 05:23:49;;;;;;;16.65;0.80;;;11.00;99.90;;;;;;5079863;28;20467;-82
2023/12/26 05:26:16;;;;;;;18.00;0.95;;;11.00;99.90;;;;;;5079000;28;20241;-82
2023/12/26 05:28:42;;;;;;;22.10;1.00;;;10.90;99.90;;;;;;5060913;28;20172;-82
2023/12/26 05:31:08;;;;;;;17.60;1.00;;;10.90;99.90;;;;;;5060589;28;20517;-82
2023/12/26 05:33:34;;;;;;;17.23;0.90;;;10.90;99.90;;;;;;5078409;28;20456;-81
2023/12/26 05:36:01;;;;;;;17.20;1.00;;;10.90;99.90;;;;;;5078198;28;20180;-82
2023/12/26 05:38:26;;;;;;;17.75;0.90;;;10.90;99.90;;;;;;5078263;28;20192;-82
2023/12/26 05:40:52;;;;;;;18.83;0.90;;;10.90;99.90;;;;;;5059906;28;20186;-82
2023/12/26 05:43:18;;;;;;;17.23;0.90;;;10.90;99.90;;;;;;5078101;28;20160;-82
2023/12/26 05:45:44;;;;;;;17.30;0.80;;;10.90;99.90;;;;;;5060156;28;20254;-81
2023/12/26 05:48:10;;;;;;;17.03;1.23;;;10.90;99.90;;;;;;5060950;28;20172;-81
2023/12/26 05:50:35;;;;;;;17.43;1.10;;;10.90;99.90;;;;;;5079047;28;20214;-82
2023/12/26 05:53:02;;;;;;;18.93;1.10;;;10.90;99.90;;;;;;5060818;28;20176;-82
2023/12/26 05:55:28;;;;;;;17.70;1.00;;;10.90;99.90;;;;;;5060632;28;20188;-82
2023/12/26 05:57:54;;;;;;;17.20;0.90;;;10.90;99.90;;;;;;5078364;28;20677;-82
2023/12/26 06:00:20;;;;;;;17.23;1.00;;;10.90;99.90;;;;;;5061684;28;20410;-82
2023/12/26 06:02:46;;;;;;;19.33;1.10;;;10.90;99.90;;;;;;5060817;28;20251;-82
2023/12/26 06:05:11;;;;;;;21.13;1.20;;;10.90;99.90;;;;;;5078548;28;20425;-82
2023/12/26 06:07:37;;;;;;;18.07;1.23;;;10.90;99.90;;;;;;5079048;28;20606;-82
2023/12/26 06:10:04;;;;;;;16.93;0.80;;;10.90;99.90;;;;;;5077672;28;20168;-82
2023/12/26 06:12:30;;;;;;;20.65;1.20;;;11.00;99.90;;;;;;5059986;28;20194;-82
2023/12/26 06:14:55;;;;;;;18.50;1.13;;;11.00;99.90;;;;;;5060137;28;20189;-82
2023/12/26 06:17:22;;;;;;;20.30;1.37;;;11.00;99.90;;;;;;5061079;28;20454;-82
2023/12/26 06:19:52;;;;;;;17.00;1.00;;;11.00;99.90;;;;;;5079470;28;20161;-83
2023/12/26 06:22:18;;;;;;;17.25;1.20;;;11.00;99.90;;;;;;5078398;28;20282;-82
2023/12/26 06:24:44;;;;;;;17.27;0.97;;;11.00;99.90;;;;;;5077892;28;20210;-82
2023/12/26 06:27:10;;;;;;;18.90;1.60;;;11.00;99.90;;;;;;5078162;28;20165;-82
2023/12/26 06:29:35;;;;;;;17.60;1.07;;;11.00;99.90;;;;;;5059399;28;20230;-82
2023/12/26 06:32:01;;;;;;;16.77;1.10;;;11.00;99.90;;;;;;5059978;28;20495;-80
2023/12/26 06:34:27;;;;;;;18.50;1.55;;;11.00;99.90;;;;;;5059601;28;20203;-82
2023/12/26 06:36:53;;;;;;;18.67;1.27;;;11.00;99.90;;;;;;5078156;28;20165;-82
2023/12/26 06:39:19;;;;;;;18.73;1.67;;;11.00;99.90;;;;;;5059790;28;20228;-81
2023/12/26 06:41:44;;;;;;;18.17;1.13;;;11.00;99.90;;;;;;5077481;28;20693;-82
2023/12/26 06:44:10;;;;;;;17.87;1.33;;;11.00;99.90;;;;;;5077025;28;20191;-81
2023/12/26 06:46:47;;;;;;;17.03;1.10;;;11.10;99.90;;;;;;5077691;28;20657;-82
2023/12/26 06:49:16;;;;;;;17.95;1.30;;;11.00;99.90;;;;;;5059446;28;20410;-81
2023/12/26 06:51:42;;;;;;;17.30;1.00;;;11.00;99.90;;;;;;5059688;28;20168;-81
2023/12/26 06:54:08;;;;;;;18.30;1.40;;;11.00;99.90;;;;;;5076881;28;20175;-81
2023/12/26 06:56:33;;;;;;;17.27;1.20;;;11.00;99.90;;;;;;5077673;28;20965;-81
2023/12/26 06:58:59;;;;;;;17.30;1.30;;;11.00;99.90;;;;;;5060078;28;20199;-82
2023/12/26 07:01:26;;;;;;;20.87;1.30;;;11.00;99.90;;;;;;5077792;28;20161;-82
2023/12/26 07:03:52;;;;;;;17.42;1.30;;;11.00;99.90;;;;;;5058645;28;20413;-81
2023/12/26 07:06:17;;;;;;;18.10;1.40;;;11.00;99.90;;;;;;5058979;28;20646;-81
2023/12/26 07:08:43;;;;;;;16.67;1.10;;;10.90;99.90;;;;;;5076673;28;20407;-81
2023/12/26 07:11:09;;;;;;;20.67;1.70;;;11.00;99.90;;;;;;5076945;28;20195;-81
2023/12/26 07:13:35;;;;;;;17.80;1.43;;;10.90;99.90;;;;;;5076198;28;20165;-81
2023/12/26 07:16:00;;;;;;;18.80;1.60;;;10.90;99.90;;;;;;5058203;28;20188;-81
2023/12/26 07:18:26;;;;;;;19.23;1.53;;;10.90;99.90;;;;;;5075893;28;20549;-81
2023/12/26 07:20:52;;;;;;;18.50;1.30;;;10.90;99.90;;;;;;5058360;28;20261;-81
2023/12/26 07:23:17;;;;;;;18.40;1.40;;;11.00;99.90;;;;;;5058478;28;20164;-81
2023/12/26 07:25:43;;;;;;;20.23;1.50;;;11.00;99.90;;;;;;5058145;28;20431;-81
2023/12/26 07:28:14;;;;;;;16.87;1.40;;;11.00;99.90;;;;;;5058512;28;20214;-81
2023/12/26 07:30:40;;;;;;;19.05;1.42;;;11.00;99.90;;;;;;5076602;28;20456;-81
2023/12/26 07:33:06;;;;;;;17.80;1.55;;;11.00;99.90;;;;;;5076364;28;20255;-81
2023/12/26 07:35:37;;;;;;;16.40;1.20;;;11.00;99.90;;;;;;5076519;28;20230;-81
2023/12/26 07:38:04;;;;;;;21.48;2.05;;;11.10;99.90;;;;;;5076352;28;20189;-81
2023/12/26 07:40:30;;;;;;;19.42;1.58;;;11.10;99.90;;;;;;5059315;28;20164;-81
2023/12/26 07:42:59;;;;;;;17.10;1.52;;;11.10;99.90;;;;;;5080492;28;20563;-81
2023/12/26 07:45:28;;;;;;;19.17;1.70;;;11.00;99.90;;;;;;5080012;28;20549;-81
2023/12/26 07:47:55;;;;;;;20.92;1.50;;;11.00;99.90;;;;;;5080084;28;20228;-81
2023/12/26 07:50:22;;;;;;;17.55;1.90;;;11.00;99.90;;;;;;5080630;28;20243;-81
2023/12/26 07:52:48;;;;;;;18.25;1.73;;;11.00;99.90;;;;;;5067951;28;20172;-81
2023/12/26 07:55:22;;;;;;;17.02;1.42;;;11.10;99.90;;;;;;5080929;28;20181;-81
2023/12/26 07:57:48;;;;;;;18.13;1.58;;;11.10;99.90;;;;;;5062822;28;20191;-81
2023/12/26 08:00:14;;;;;;;19.23;1.40;;;11.10;99.90;;;;;;5081246;28;20222;-82
2023/12/26 08:02:40;;;;;;;18.70;1.67;;;11.10;99.90;;;;;;5080785;28;20184;-82
2023/12/26 08:05:05;;;;;;;20.73;2.03;;;11.10;99.90;;;;;;5080535;28;20493;-82
2023/12/26 08:07:31;;;;;;;19.53;1.80;;;11.10;99.90;;;;;;5080519;28;20936;-82
2023/12/26 08:09:57;;;;;;;16.67;1.33;;;11.10;99.90;;;;;;5080728;28;20672;-82
2023/12/26 08:12:26;;;;;;;20.37;1.60;;;11.10;99.90;;;;;;5080454;28;20529;-82
2023/12/26 08:14:54;;;;;;;18.52;1.60;;;11.10;99.90;;;;;;5062406;28;20188;-82
2023/12/26 08:17:20;;;;;;;19.38;1.52;;;11.10;99.90;;;;;;5062195;28;20215;-82
2023/12/26 08:19:46;;;;;;;24.13;1.87;;;11.20;99.90;;;;;;5080804;28;20157;-82
2023/12/26 08:22:11;;;;;;;17.80;1.50;;;11.10;99.90;;;;;;5079875;28;20568;-81
2023/12/26 08:24:37;;;;;;;17.37;1.53;;;11.20;99.90;;;;;;5062437;28;20538;-81
2023/12/26 08:27:03;;;;;;;17.10;1.73;;;11.20;99.90;;;;;;5080048;28;20171;-81
2023/12/26 08:29:28;;;;;;;18.77;1.60;;;11.20;99.90;;;;;;5061993;28;20226;-82
2023/12/26 08:31:54;;;;;;;18.23;1.63;;;11.20;99.90;;;;;;5080398;28;20399;-81
2023/12/26 08:34:23;;;;;;;17.70;1.80;;;11.10;99.90;;;;;;5061520;28;20696;-82
2023/12/26 08:36:49;;;;;;;17.95;1.38;;;11.10;99.90;;;;;;5061610;28;20198;-82
2023/12/26 08:39:15;;;;;;;19.40;2.30;;;11.10;99.90;;;;;;5079122;28;20275;-82
2023/12/26 08:41:40;;;;;;;17.50;1.47;;;11.20;99.90;;;;;;5061925;28;20194;-81
2023/12/26 08:44:06;;;;;;;17.90;1.70;;;11.20;99.90;;;;;;5061685;28;20415;-81
2023/12/26 08:46:32;;;;;;;18.23;1.93;;;11.20;99.90;;;;;;5079634;28;20175;-82
2023/12/26 08:48:58;;;;;;;18.07;1.53;;;11.20;99.90;;;;;;5079447;28;20745;-81
2023/12/26 08:51:23;;;;;;;18.43;1.93;;;11.20;99.90;;;;;;5080023;28;20164;-81
2023/12/26 08:53:49;;;;;;;19.50;1.43;;;11.30;99.90;;;;;;5061892;28;20179;-81
2023/12/26 08:56:15;;;;;;;24.93;1.80;;;11.30;99.90;;;;;;5061825;28;20438;-82
2023/12/26 08:58:41;;;;;;;18.93;1.70;;;11.30;99.90;;;;;;5079192;28;20196;-82
2023/12/26 09:01:09;;;;;;;19.07;2.73;;;11.30;99.90;;;;;;5061682;28;20419;-81
2023/12/26 09:03:35;;;;;;;19.20;1.58;;;11.30;99.90;;;;;;5061964;28;20176;-82
2023/12/26 09:06:01;;;;;;;17.33;1.60;;;11.30;99.90;;;;;;5061270;28;20184;-82
2023/12/26 09:08:26;;;;;;;16.93;1.50;;;11.40;99.90;;;;;;5079489;28;20588;-82
2023/12/26 09:10:55;;;;;;;16.33;1.20;;;11.40;99.90;;;;;;5079328;28;20156;-81
2023/12/26 09:13:21;;;;;;;16.80;1.30;;;11.40;99.90;;;;;;5061429;28;20195;-82
2023/12/26 09:15:50;;;;;;;22.33;1.50;;;11.30;99.90;;;;;;5061219;28;20196;-82
2023/12/26 09:18:18;;;;;;;20.85;1.50;;;11.40;99.90;;;;;;5079177;28;20453;-82
2023/12/26 09:20:44;;;;;;;18.88;1.63;;;11.40;99.90;;;;;;5079535;28;20160;-81
2023/12/26 09:23:12;;;;;;;19.90;2.07;;;11.40;99.90;;;;;;5079509;28;20160;-81
2023/12/26 09:25:38;;;;;;;22.73;1.80;;;11.40;99.90;;;;;;5062949;28;20189;-81
2023/12/26 09:28:05;;;;;;;18.45;1.60;;;11.40;99.90;;;;;;5079630;28;20168;-82
2023/12/26 09:30:40;;;;;;;18.27;2.35;;;11.40;99.90;;;;;;5079208;28;20161;-80
2023/12/26 09:33:06;;;;;;;17.55;1.50;;;11.40;99.90;;;;;;5060990;28;20180;-81
2023/12/26 09:35:31;;;;;;;19.87;2.10;;;11.30;99.90;;;;;;5079131;28;20195;-82
2023/12/26 09:37:57;;;;;;;17.57;1.90;;;11.30;99.90;;;;;;5079223;28;20609;-82
2023/12/26 09:40:23;;;;;;;18.37;1.80;;;11.30;99.90;;;;;;5079207;28;20180;-81
2023/12/26 09:43:02;;;;;;;22.60;1.67;;;11.30;99.90;;;;;;5079257;28;20173;-82
2023/12/26 09:45:28;;;;;;;21.00;1.90;;;11.30;99.90;;;;;;5078665;28;20238;-82
2023/12/26 09:47:54;;;;;;;18.30;1.60;;;11.30;99.90;;;;;;5060615;28;20173;-81
2023/12/26 09:50:20;;;;;;;19.45;1.70;;;11.40;99.90;;;;;;5060245;28;20468;-82
2023/12/26 09:53:04;;;;;;;17.95;1.50;;;11.40;99.90;;;;;;5078575;28;20177;-81
2023/12/26 09:55:29;;;;;;;17.80;1.70;;;11.50;99.90;;;;;;5078413;28;20214;-81
2023/12/26 09:58:23;;;;;;;17.10;1.30;;;11.50;99.90;;;;;;5060644;28;20196;-82
2023/12/26 10:00:50;;;;;;;16.70;1.58;;;11.50;99.90;;;;;;5078421;28;20406;-81
2023/12/26 10:03:18;;;;;;;15.55;1.20;;;11.60;99.90;;;;;;5060603;28;20168;-81
2023/12/26 10:05:44;;;;;;;22.38;2.05;;;11.60;99.90;;;;;;5059311;28;20274;-82
2023/12/26 10:08:32;;;;;;;19.03;2.20;;;11.70;99.90;;;;;;5078174;28;20200;-81
2023/12/26 10:10:58;;;;;;;20.05;2.47;;;11.70;99.90;;;;;;5060150;28;20407;-82
2023/12/26 10:13:24;;;;;;;25.00;1.67;;;11.70;99.90;;;;;;5078981;28;20523;-81
2023/12/26 10:15:54;;;;;;;17.75;1.30;;;11.70;99.90;;;;;;5060559;28;20218;-81
2023/12/26 10:18:19;;;;;;;18.25;1.40;;;11.70;99.90;;;;;;5077184;28;20612;-81
2023/12/26 10:20:45;;;;;;;23.43;1.80;;;11.80;99.90;;;;;;5077766;28;20157;-82
2023/12/26 10:23:11;;;;;;;15.67;1.20;;;11.90;99.90;;;;;;5059416;28;20161;-82
2023/12/26 10:25:37;;;;;;;16.70;1.40;;;11.90;99.90;;;;;;5077337;28;20414;-81
2023/12/26 10:28:03;;;;;;;17.03;1.90;;;11.90;99.90;;;;;;5077128;28;20630;-81
2023/12/26 10:30:29;;;;;;;17.23;1.30;;;11.90;97.60;;;;;;5059363;28;20184;-81
2023/12/26 10:32:59;;;;;;;23.10;1.60;;;12.00;95.30;;;;;;5059167;28;20168;-82
2023/12/26 10:35:28;;;;;;;20.55;1.55;;;12.00;92.30;;;;;;5059220;28;20199;-81
2023/12/26 10:37:55;;;;;;;18.65;1.60;;;12.10;91.60;;;;;;5058974;28;20250;-82
2023/12/26 10:40:21;;;;;;;19.98;1.55;;;12.10;92.10;;;;;;5077779;28;20161;-82
2023/12/26 10:42:50;;;;;;;17.30;1.50;;;12.00;89.50;;;;;;5060363;28;20223;-81
2023/12/26 10:45:19;;;;;;;15.77;1.27;;;12.00;93.70;;;;;;5059165;28;20658;-81
2023/12/26 10:47:48;;;;;;;22.10;1.75;;;12.10;94.70;;;;;;5059491;28;20180;-81
2023/12/26 10:50:16;;;;;;;17.55;1.50;;;12.20;91.20;;;;;;5059155;28;20178;-82
2023/12/26 10:53:05;;;;;;;18.67;1.33;;;12.30;93.60;;;;;;5059268;28;20378;-82
2023/12/26 10:55:33;;;;;;;16.33;1.35;;;12.40;91.00;;;;;;5077862;28;20187;-82
2023/12/26 10:58:18;;;;;;;16.95;1.63;;;12.50;77.70;;;;;;5078151;28;20188;-82
2023/12/26 13:53:18;;;;;;;17.58;1.60;;;11.20;1.00;;;;;;5078895;28;20159;-81
2023/12/26 13:56:21;;;;;;;22.10;1.30;;;11.20;1.00;;;;;;5078474;28;20183;-81
2023/12/26 13:59:24;;;;;;;17.90;1.40;;;11.10;1.00;;;;;;5078536;28;20195;-81
2023/12/26 14:02:27;;;;;;;21.17;2.00;;;11.00;1.00;;;;;;5078614;28;20164;-81
2023/12/26 14:05:30;;;;;;;16.85;1.40;;;11.00;1.00;;;;;;5080740;28;20592;-81
2023/12/26 14:08:33;;;;;;;21.02;2.15;;;11.10;1.00;;;;;;5060269;28;20175;-81
2023/12/26 14:11:39;;;;;;;19.83;1.75;;;11.00;1.00;;;;;;5060182;28;20270;-81
2023/12/26 14:14:42;;;;;;;21.60;3.05;;;11.10;1.00;;;;;;5078213;28;20247;-81
2023/12/26 14:17:48;;;;;;;22.60;2.92;;;11.00;1.00;;;;;;5078228;28;20187;-81
2023/12/26 14:20:51;;;;;;;21.77;2.50;;;10.90;1.00;;;;;;5078133;28;20168;-81
2023/12/26 14:23:54;;;;;;;22.85;1.95;;;11.00;1.00;;;;;;5078678;28;20518;-81
2023/12/26 14:26:57;;;;;;;21.65;1.92;;;11.00;1.00;;;;;;5060299;28;20233;-81
2023/12/26 14:30:00;;;;;;;19.15;1.80;;;10.90;1.00;;;;;;5078221;28;20168;-81
2023/12/26 14:33:03;;;;;;;20.65;2.03;;;10.90;1.00;;;;;;5077769;28;20192;-81
2023/12/26 14:36:06;;;;;;;16.83;1.60;;;10.90;1.00;;;;;;5077234;28;20214;-81
2023/12/26 14:39:10;;;;;;;17.15;1.40;;;10.90;1.00;;;;;;5060088;28;20214;-81
2023/12/26 14:42:13;;;;;;;17.52;1.92;;;10.90;1.00;;;;;;5077214;28;20161;-81
2023/12/26 14:45:16;;;;;;;20.17;2.25;;;10.80;1.00;;;;;;5059561;28;20184;-81
2023/12/26 14:48:20;;;;;;;17.45;1.35;;;10.80;1.00;;;;;;5077875;28;20169;-81
2023/12/26 14:51:23;;;;;;;18.00;1.50;;;10.80;1.00;;;;;;5058433;28;20168;-81
2023/12/26 14:54:26;;;;;;;21.50;2.33;;;10.80;1.00;;;;;;5076870;28;20243;-79
2023/12/26 14:57:29;;;;;;;19.45;1.70;;;10.80;1.00;;;;;;5077435;28;20223;-80
2023/12/26 15:00:32;;;;;;;17.10;1.67;;;10.80;1.00;;;;;;5076484;28;20226;-81
2023/12/26 15:03:00;;;;;;;18.90;1.88;;;10.80;1.00;;;;;;5058613;28;20168;-81
2023/12/26 15:07:53;;;;;;;22.02;2.00;;;10.80;1.00;;;;;;5034118;28;20205;-80
2023/12/26 15:10:19;;;;;;;20.00;1.83;;;10.80;1.00;;;;;;5110510;23;20224;-80
2023/12/26 15:12:45;;;;;;;23.93;2.07;;;10.80;1.00;;;;;;5056343;28;20161;-80
2023/12/26 15:15:10;;;;;;;19.67;1.83;;;10.70;1.00;;;;;;5057171;28;20473;-80
2023/12/26 15:17:37;;;;;;;20.20;1.80;;;10.70;1.00;;;;;;5131692;22;20187;-80
2023/12/26 15:20:03;;;;;;;20.00;1.70;;;10.70;1.00;;;;;;5122821;22;20327;-80
2023/12/26 15:22:29;;;;;;;17.25;1.63;;;10.70;1.00;;;;;;5038692;28;20168;-80
2023/12/26 15:24:54;;;;;;;21.60;1.70;;;10.70;1.00;;;;;;5056731;28;20520;-80
2023/12/26 15:27:23;;;;;;;20.63;1.47;;;10.60;1.00;;;;;;5056863;28;20169;-80
2023/12/26 15:29:49;;;;;;;19.38;1.50;;;10.60;1.00;;;;;;5038544;28;20248;-80
2023/12/26 15:32:15;;;;;;;21.57;1.50;;;10.60;1.00;;;;;;5038914;28;20687;-80
2023/12/26 15:34:41;;;;;;;25.35;2.03;;;10.50;1.00;;;;;;5039645;28;20181;-80
2023/12/26 15:37:07;;;;;;;18.73;1.50;;;10.40;1.00;;;;;;5058616;28;20169;-80
2023/12/26 15:39:33;;;;;;;23.57;2.00;;;10.40;1.00;;;;;;5057203;28;20196;-80
2023/12/26 15:41:58;;;;;;;19.53;2.47;;;10.30;1.00;;;;;;5038805;28;20789;-80
2023/12/26 15:44:24;;;;;;;21.23;1.83;;;10.40;1.00;;;;;;5057014;28;20177;-80